Time;durP1;ratioP1;P1;durP2;ratioP2;P2;SDS_P1;SDS_P2;PMS_P1;PMS_P2;Temp;Humidity;BMP_temperature;BMP_pressure;BME280_temperature;BME280_humidity;BME280_pressure;Samples;Min_cycle;Max_cycle;Signal;HPM_P1;HPM_P2
2022/11/25 00:00:47;;;;;;;10.43;2.83;;;8.10;99.90;;;;;;5063316;28;20803;-74
2022/11/25 00:03:13;;;;;;;;;;;8.10;99.90;;;;;;5060717;28;20041;-74
2022/11/25 00:05:39;;;;;;;7.05;2.65;;;7.90;99.90;;;;;;5063635;28;19978;-75
2022/11/25 00:08:04;;;;;;;;;;;8.00;99.90;;;;;;5061784;28;20114;-75
2022/11/25 00:10:30;;;;;;;11.10;2.95;;;8.10;99.90;;;;;;5063459;28;19920;-75
2022/11/25 00:12:55;;;;;;;;;;;8.10;99.90;;;;;;5060201;28;20029;-74
2022/11/25 00:15:21;;;;;;;10.77;2.92;;;8.30;99.90;;;;;;5060955;28;20437;-74
2022/11/25 00:17:46;;;;;;;;;;;8.10;99.90;;;;;;5060162;28;20171;-74
2022/11/25 00:20:12;;;;;;;12.10;2.92;;;8.20;99.90;;;;;;5059970;28;19927;-74
2022/11/25 00:22:37;;;;;;;;;;;8.10;99.90;;;;;;5060688;28;20125;-74
2022/11/25 00:25:03;;;;;;;11.20;2.75;;;8.00;99.90;;;;;;5060616;28;19927;-74
2022/11/25 00:27:29;;;;;;;;;;;8.10;99.90;;;;;;5063066;28;20044;-74
2022/11/25 00:29:55;;;;;;;13.63;2.85;;;8.00;99.90;;;;;;5062868;28;20344;-74
2022/11/25 00:32:23;;;;;;;14.52;2.45;;;8.00;99.90;;;;;;5058991;28;20493;-74
2022/11/25 00:34:48;;;;;;;;;;;8.00;99.90;;;;;;5061541;28;20040;-74
2022/11/25 00:37:14;;;;;;;9.48;2.45;;;9.40;99.90;;;;;;5060219;28;19924;-74
2022/11/25 00:39:39;;;;;;;;;;;8.20;99.90;;;;;;5058739;28;20120;-74
2022/11/25 00:44:49;;;;;;;11.30;2.78;;;8.00;99.90;;;;;;5058751;28;20123;-74
2022/11/25 00:47:16;;;;;;;;;;;8.00;99.90;;;;;;5059430;28;20131;-74
2022/11/25 00:49:47;;;;;;;11.45;2.75;;;7.90;99.90;;;;;;5060142;28;19927;-74
2022/11/25 00:52:18;;;;;;;12.27;3.03;;;7.90;99.90;;;;;;5060757;28;20045;-74
2022/11/25 00:54:46;;;;;;;11.55;2.60;;;7.90;99.90;;;;;;5060965;28;20053;-74
2022/11/25 00:57:13;;;;;;;14.20;3.55;;;7.90;99.90;;;;;;5063693;28;20036;-73
2022/11/25 00:59:39;;;;;;;10.48;2.92;;;8.00;99.90;;;;;;5061589;28;20523;-74
2022/11/25 01:02:05;;;;;;;;;;;8.00;99.90;;;;;;5061447;28;20076;-74
2022/11/25 01:04:30;;;;;;;10.35;2.80;;;8.00;99.90;;;;;;5054879;28;19927;-74
2022/11/25 01:06:58;;;;;;;;;;;7.90;99.90;;;;;;5062531;28;20115;-75
2022/11/25 01:09:24;;;;;;;12.18;2.65;;;8.00;99.90;;;;;;5059824;28;19932;-74
2022/11/25 01:11:50;;;;;;;;;;;7.90;99.90;;;;;;5061445;28;20083;-74
2022/11/25 01:14:16;;;;;;;11.60;4.35;;;8.00;99.90;;;;;;5061020;28;19920;-74
2022/11/25 01:16:42;;;;;;;12.25;2.72;;;8.70;99.90;;;;;;5059127;28;20064;-74
2022/11/25 01:19:09;;;;;;;;;;;8.00;99.90;;;;;;5061287;28;21482;-74
2022/11/25 01:21:35;;;;;;;8.82;3.10;;;8.10;99.90;;;;;;5059884;28;19924;-73
2022/11/25 01:24:01;;;;;;;;;;;8.10;99.90;;;;;;5061413;28;20071;-74
2022/11/25 01:26:28;;;;;;;9.20;2.27;;;8.00;99.90;;;;;;5061312;28;19921;-74
2022/11/25 01:28:57;;;;;;;13.68;2.45;;;8.10;99.90;;;;;;5060320;28;20045;-74
2022/11/25 01:31:25;;;;;;;10.00;2.70;;;8.00;99.90;;;;;;5063113;28;20049;-74
2022/11/25 01:34:03;;;;;;;14.20;2.58;;;8.00;99.90;;;;;;5067143;28;20150;-74
2022/11/25 01:36:29;;;;;;;11.02;2.58;;;8.00;99.90;;;;;;5064841;28;20045;-74
2022/11/25 01:38:58;;;;;;;12.20;3.30;;;7.90;99.90;;;;;;5065929;28;20041;-75
2022/11/25 01:41:25;;;;;;;13.70;2.97;;;7.90;99.90;;;;;;5069987;28;20045;-74
2022/11/25 01:44:07;;;;;;;13.45;2.97;;;8.00;99.90;;;;;;5065997;28;20048;-74
2022/11/25 01:46:38;;;;;;;9.40;2.53;;;8.00;99.90;;;;;;5063793;28;20131;-75
2022/11/25 01:49:07;;;;;;;13.75;2.53;;;8.00;99.90;;;;;;5064259;28;20131;-74
2022/11/25 01:51:38;;;;;;;9.63;2.50;;;8.00;99.90;;;;;;5065113;28;20045;-74
2022/11/25 01:54:07;;;;;;;9.80;2.67;;;8.00;99.90;;;;;;5061604;28;20063;-75
2022/11/25 01:56:42;;;;;;;10.68;3.22;;;7.90;99.90;;;;;;5065211;28;20076;-74
2022/11/25 01:59:08;;;;;;;8.13;2.65;;;8.00;99.90;;;;;;5068330;28;20061;-74
2022/11/25 02:01:33;;;;;;;;;;;8.00;99.90;;;;;;5063885;28;20048;-74
2022/11/25 02:04:00;;;;;;;9.68;2.50;;;7.90;99.90;;;;;;5063238;28;19928;-74
2022/11/25 02:06:34;;;;;;;9.65;2.63;;;7.90;99.90;;;;;;5064433;28;20051;-74
2022/11/25 02:09:06;;;;;;;12.85;2.67;;;8.00;99.90;;;;;;5062304;28;20095;-75
2022/11/25 02:11:35;;;;;;;10.32;2.65;;;8.10;99.90;;;;;;5065034;28;20040;-75
2022/11/25 02:14:02;;;;;;;9.07;3.05;;;8.20;99.90;;;;;;5060743;28;20067;-75
2022/11/25 02:16:28;;;;;;;11.38;2.63;;;8.20;99.90;;;;;;5064577;28;20102;-75
2022/11/25 02:18:53;;;;;;;;;;;8.10;99.90;;;;;;5062665;28;20472;-75
2022/11/25 02:21:29;;;;;;;6.40;2.20;;;8.20;99.90;;;;;;5063023;28;19921;-75
2022/11/25 02:24:09;;;;;;;11.63;2.60;;;8.10;99.90;;;;;;5062069;28;20507;-75
2022/11/25 02:26:34;;;;;;;10.98;2.65;;;8.10;99.90;;;;;;5068340;28;20508;-74
2022/11/25 02:29:00;;;;;;;;;;;8.00;99.90;;;;;;5059554;28;20098;-75
2022/11/25 02:31:25;;;;;;;10.57;3.38;;;8.00;99.90;;;;;;5064784;28;20303;-74
2022/11/25 02:33:51;;;;;;;;;;;8.00;99.90;;;;;;5061682;28;20163;-75
2022/11/25 02:36:21;;;;;;;9.63;2.70;;;8.00;99.90;;;;;;5065883;28;19920;-74
2022/11/25 02:38:48;;;;;;;7.80;2.50;;;7.20;99.90;;;;;;5078936;28;20115;-75
2022/11/25 02:41:38;;;;;;;11.60;3.20;;;8.00;99.90;;;;;;5062772;28;20044;-75
2022/11/25 02:44:04;;;;;;;8.65;2.92;;;8.20;99.90;;;;;;5060577;28;20048;-74
2022/11/25 02:46:30;;;;;;;14.70;3.10;;;8.00;99.90;;;;;;5061213;28;20489;-75
2022/11/25 02:48:56;;;;;;;;;;;8.00;99.90;;;;;;5060804;28;20700;-75
2022/11/25 02:51:26;;;;;;;15.53;3.77;;;8.00;99.90;;;;;;5064055;28;20304;-74
2022/11/25 02:53:52;;;;;;;12.02;2.88;;;8.00;99.90;;;;;;5061275;28;20048;-74
2022/11/25 02:56:18;;;;;;;;;;;8.00;99.90;;;;;;5062367;28;20036;-74
2022/11/25 02:58:44;;;;;;;13.00;3.15;;;8.10;99.90;;;;;;5062512;28;19966;-75
2022/11/25 03:01:10;;;;;;;;;;;8.80;99.90;;;;;;5061324;28;20045;-75
2022/11/25 03:03:36;;;;;;;7.82;2.17;;;8.00;99.90;;;;;;5063593;28;20368;-75
2022/11/25 03:06:05;;;;;;;13.02;3.30;;;8.00;99.90;;;;;;5060616;28;20130;-75
2022/11/25 03:08:31;;;;;;;10.13;2.80;;;8.10;99.90;;;;;;5066675;28;20068;-75
2022/11/25 03:10:56;;;;;;;;;;;8.10;99.90;;;;;;5060058;28;20068;-75
2022/11/25 03:13:22;;;;;;;11.50;2.83;;;8.10;99.90;;;;;;5064319;28;19923;-75
2022/11/25 03:15:48;;;;;;;;;;;8.10;99.90;;;;;;5062204;28;20391;-74
2022/11/25 03:18:13;;;;;;;9.75;2.55;;;8.10;99.90;;;;;;5061956;28;20271;-75
2022/11/25 03:20:39;;;;;;;;;;;8.50;99.90;;;;;;5061378;28;20037;-75
2022/11/25 03:23:05;;;;;;;12.77;3.30;;;8.20;99.90;;;;;;5063650;28;20279;-74
2022/11/25 03:25:31;;;;;;;7.78;2.70;;;8.20;99.90;;;;;;5059482;28;20043;-75
2022/11/25 03:27:57;;;;;;;;;;;8.30;99.90;;;;;;5064853;28;20036;-75
2022/11/25 03:30:25;;;;;;;11.95;3.60;;;8.20;99.90;;;;;;5064134;28;20007;-75
2022/11/25 03:32:50;;;;;;;9.93;2.58;;;8.20;99.90;;;;;;5062960;28;20039;-75
2022/11/25 03:35:16;;;;;;;;;;;8.20;99.90;;;;;;5060728;28;20057;-74
2022/11/25 03:37:43;;;;;;;12.98;3.03;;;8.20;99.90;;;;;;5061165;28;20371;-75
2022/11/25 03:40:12;;;;;;;10.10;2.70;;;8.70;99.90;;;;;;5060676;28;20085;-74
2022/11/25 03:42:38;;;;;;;8.25;3.25;;;8.20;99.90;;;;;;5061492;28;20488;-74
2022/11/25 03:45:04;;;;;;;;;;;8.20;99.90;;;;;;5062246;28;20035;-74
2022/11/25 03:47:31;;;;;;;9.20;3.72;;;8.30;99.90;;;;;;5060710;28;19921;-74
2022/11/25 03:49:56;;;;;;;10.32;3.33;;;8.30;99.90;;;;;;5063776;28;20040;-75
2022/11/25 03:52:22;;;;;;;;;;;8.30;99.90;;;;;;5059957;28;20040;-75
2022/11/25 03:54:47;;;;;;;9.52;3.42;;;8.30;99.90;;;;;;5061711;28;20295;-74
2022/11/25 03:57:13;;;;;;;;;;;8.30;99.90;;;;;;5061199;28;20052;-73
2022/11/25 03:59:38;;;;;;;10.10;3.25;;;8.30;99.90;;;;;;5061823;28;19921;-74
2022/11/25 04:02:04;;;;;;;;;;;8.40;99.90;;;;;;5061945;28;20390;-74
2022/11/25 04:04:30;;;;;;;10.23;3.20;;;8.30;99.90;;;;;;5061133;28;19924;-74
2022/11/25 04:06:55;;;;;;;;;;;8.30;99.90;;;;;;5060708;28;20542;-73
2022/11/25 04:09:21;;;;;;;9.27;3.40;;;8.30;99.90;;;;;;5062548;28;19921;-74
2022/11/25 04:14:31;;;;;;;10.07;3.40;;;8.40;99.90;;;;;;5060497;28;19920;-74
2022/11/25 04:16:56;;;;;;;;;;;8.50;99.90;;;;;;5061745;28;20559;-74
2022/11/25 04:19:22;;;;;;;6.45;2.83;;;8.50;99.90;;;;;;5059263;28;19924;-75
2022/11/25 04:21:48;;;;;;;;;;;8.50;99.90;;;;;;5062911;28;20037;-73
2022/11/25 04:24:13;;;;;;;9.18;3.08;;;9.30;99.90;;;;;;5062196;28;19920;-74
2022/11/25 04:26:39;;;;;;;13.07;3.40;;;8.50;99.90;;;;;;5060039;28;20079;-74
2022/11/25 04:29:05;;;;;;;;;;;8.50;99.90;;;;;;5062340;28;20476;-74
2022/11/25 04:31:31;;;;;;;10.25;3.72;;;8.40;99.90;;;;;;5059802;28;20356;-74
2022/11/25 04:33:56;;;;;;;;;;;8.40;99.90;;;;;;5061738;28;20124;-74
2022/11/25 04:36:22;;;;;;;7.95;3.28;;;8.40;99.90;;;;;;5061931;28;19924;-74
2022/11/25 04:38:47;;;;;;;;;;;8.40;99.90;;;;;;5059331;28;20049;-75
2022/11/25 04:41:13;;;;;;;8.82;3.17;;;8.40;99.90;;;;;;5061835;28;19964;-75
2022/11/25 04:43:38;;;;;;;;;;;8.30;99.90;;;;;;5058940;28;20037;-75
2022/11/25 04:46:04;;;;;;;9.15;3.58;;;8.30;99.90;;;;;;5061221;28;19928;-75
2022/11/25 04:48:30;;;;;;;;;;;8.30;99.90;;;;;;5059306;28;20094;-75
2022/11/25 04:50:55;;;;;;;8.23;3.53;;;8.90;99.90;;;;;;5065543;28;19970;-75
2022/11/25 04:53:21;;;;;;;;;;;8.20;99.90;;;;;;5061120;28;20071;-75
2022/11/25 04:55:47;;;;;;;13.80;4.00;;;8.10;99.90;;;;;;5058479;28;20273;-77
2022/11/25 04:58:12;;;;;;;;;;;8.10;99.90;;;;;;5062282;28;20040;-77
2022/11/25 05:00:38;;;;;;;9.35;3.72;;;8.10;99.90;;;;;;5061029;28;19920;-78
2022/11/25 05:03:05;;;;;;;;;;;8.10;99.90;;;;;;5058559;28;20459;-75
2022/11/25 05:05:31;;;;;;;9.77;4.00;;;8.10;99.90;;;;;;5063645;28;19982;-77
2022/11/25 05:07:56;;;;;;;;;;;8.10;99.90;;;;;;5064979;28;20502;-77
2022/11/25 05:10:22;;;;;;;7.78;3.38;;;8.10;99.90;;;;;;5064644;28;20450;-77
2022/11/25 05:12:47;;;;;;;;;;;8.00;99.90;;;;;;5065962;28;20059;-77
2022/11/25 05:15:13;;;;;;;10.93;3.55;;;8.10;99.90;;;;;;5065778;28;19928;-76
2022/11/25 05:17:39;;;;;;;;;;;8.20;99.90;;;;;;5062712;28;20036;-73
2022/11/25 05:20:12;;;;;;;8.93;3.30;;;8.10;99.90;;;;;;5062993;28;19924;-75
2022/11/25 05:22:38;;;;;;;10.77;3.80;;;9.90;99.90;;;;;;5062841;28;20056;-75
2022/11/25 05:25:06;;;;;;;;;;;8.20;99.90;;;;;;5063234;28;20480;-74
2022/11/25 05:27:32;;;;;;;10.68;3.70;;;8.10;99.90;;;;;;5066255;28;19966;-74
2022/11/25 05:29:57;;;;;;;;;;;8.10;99.90;;;;;;5062722;28;20052;-75
2022/11/25 05:32:23;;;;;;;10.88;3.42;;;8.20;99.90;;;;;;5061979;28;20381;-75
2022/11/25 05:34:49;;;;;;;;;;;8.30;99.90;;;;;;5063808;28;20106;-73
2022/11/25 05:37:14;;;;;;;9.85;3.92;;;8.30;99.90;;;;;;5055992;28;20371;-73
2022/11/25 05:39:40;;;;;;;;;;;8.20;99.90;;;;;;5063718;28;20747;-77
2022/11/25 05:42:06;;;;;;;14.50;3.58;;;8.20;99.90;;;;;;5066762;28;20011;-76
2022/11/25 05:44:31;;;;;;;;;;;8.20;99.90;;;;;;5062459;28;20029;-76
2022/11/25 05:47:06;;;;;;;14.50;4.40;;;8.20;99.90;;;;;;5065182;28;19924;-76
2022/11/25 05:49:31;;;;;;;15.35;3.83;;;8.30;99.90;;;;;;5066647;28;20041;-76
2022/11/25 05:51:57;;;;;;;;;;;8.20;99.90;;;;;;5070510;28;20064;-85
2022/11/25 05:54:23;;;;;;;11.57;4.30;;;8.20;99.90;;;;;;5070145;28;20422;-78
2022/11/25 05:56:48;;;;;;;;;;;8.20;99.90;;;;;;5058876;28;20057;-81
2022/11/25 05:59:14;;;;;;;13.68;3.95;;;8.20;99.90;;;;;;5057858;28;19950;-78
2022/11/25 06:01:39;;;;;;;11.65;4.32;;;8.20;99.90;;;;;;5066923;28;20089;-78
2022/11/25 06:04:05;;;;;;;;;;;8.20;99.90;;;;;;5062340;28;20512;-76
2022/11/25 06:06:31;;;;;;;16.70;3.95;;;8.20;99.90;;;;;;5065811;28;20382;-74
2022/11/25 06:08:57;;;;;;;;;;;8.20;99.90;;;;;;5067639;28;20419;-76
2022/11/25 06:11:24;;;;;;;13.63;4.53;;;8.30;99.90;;;;;;5060107;28;19921;-78
2022/11/25 06:13:50;;;;;;;12.77;4.20;;;8.30;99.90;;;;;;5063419;28;20397;-73
2022/11/25 06:16:17;;;;;;;;;;;8.40;99.90;;;;;;5064398;28;20048;-86
2022/11/25 06:18:43;;;;;;;11.45;3.97;;;8.30;99.90;;;;;;5062583;28;19921;-74
2022/11/25 06:21:10;;;;;;;10.57;4.63;;;8.40;99.90;;;;;;5064539;28;20048;-82
2022/11/25 06:23:36;;;;;;;12.25;5.05;;;8.40;99.90;;;;;;5063622;28;20033;-79
2022/11/25 06:26:09;;;;;;;14.45;4.53;;;8.40;99.90;;;;;;5063645;28;20093;-84
2022/11/25 06:28:35;;;;;;;10.40;3.90;;;8.70;99.90;;;;;;5062262;28;20041;-83
2022/11/25 06:31:05;;;;;;;;;;;8.30;99.90;;;;;;5065566;28;20043;-75
2022/11/25 06:33:31;;;;;;;8.60;3.63;;;8.20;99.90;;;;;;5061427;28;19920;-79
2022/11/25 06:35:56;;;;;;;;;;;8.30;99.90;;;;;;5067633;28;20602;-83
2022/11/25 06:38:22;;;;;;;14.82;4.00;;;8.30;99.90;;;;;;5065368;28;19920;-78
2022/11/25 06:40:47;;;;;;;;;;;8.10;99.90;;;;;;5061505;28;20380;-81
2022/11/25 06:43:13;;;;;;;15.13;3.67;;;8.00;99.90;;;;;;5062770;28;19927;-78
2022/11/25 06:45:42;;;;;;;;;;;8.00;99.90;;;;;;5068006;28;20110;-76
2022/11/25 06:48:07;;;;;;;12.52;3.97;;;8.00;99.90;;;;;;5061100;28;19926;-75
2022/11/25 06:50:33;;;;;;;;;;;8.10;99.90;;;;;;5062876;28;20037;-86
2022/11/25 06:53:00;;;;;;;11.10;4.05;;;8.00;99.90;;;;;;5063140;28;19928;-74
2022/11/25 06:55:28;;;;;;;10.20;4.30;;;7.70;99.90;;;;;;5061739;28;20047;-74
2022/11/25 06:57:54;;;;;;;10.30;3.67;;;7.70;99.90;;;;;;5061325;28;20047;-74
2022/11/25 07:00:20;;;;;;;;;;;7.60;99.90;;;;;;5064014;28;20491;-73
2022/11/25 07:02:45;;;;;;;9.85;3.78;;;7.60;99.90;;;;;;5059511;28;19921;-73
2022/11/25 07:05:11;;;;;;;;;;;7.60;99.90;;;;;;5066380;28;20053;-73
2022/11/25 07:07:37;;;;;;;10.18;3.97;;;7.60;99.90;;;;;;5062790;28;19963;-74
2022/11/25 07:10:02;;;;;;;;;;;7.50;99.90;;;;;;5057744;28;20032;-74
2022/11/25 07:12:30;;;;;;;12.20;4.40;;;7.30;99.90;;;;;;5056364;28;20009;-74
2022/11/25 07:14:55;;;;;;;10.43;4.13;;;7.50;99.90;;;;;;5059596;28;20146;-74
2022/11/25 07:17:21;;;;;;;;;;;7.50;99.90;;;;;;5060437;28;20520;-73
2022/11/25 07:19:46;;;;;;;12.68;3.45;;;7.50;99.90;;;;;;5064468;28;20021;-74
2022/11/25 07:22:15;;;;;;;10.27;3.92;;;7.50;99.90;;;;;;5058310;28;20083;-74
2022/11/25 07:24:40;;;;;;;;;;;7.40;99.90;;;;;;5061530;28;20064;-74
2022/11/25 07:27:07;;;;;;;10.13;3.80;;;7.40;99.90;;;;;;5060561;28;19916;-73
2022/11/25 07:29:34;;;;;;;11.00;4.00;;;7.40;99.90;;;;;;5062490;28;20037;-74
2022/11/25 07:32:00;;;;;;;9.43;3.70;;;7.30;99.90;;;;;;5061232;28;20044;-74
2022/11/25 07:34:26;;;;;;;8.13;4.20;;;7.30;99.90;;;;;;5066410;28;20468;-73
2022/11/25 07:36:52;;;;;;;;;;;7.70;99.90;;;;;;5063216;28;20024;-74
2022/11/25 07:39:20;;;;;;;9.40;4.50;;;7.30;99.90;;;;;;5060157;28;20360;-74
2022/11/25 07:41:53;;;;;;;10.38;4.05;;;7.30;99.90;;;;;;5063551;28;20062;-74
2022/11/25 07:44:20;;;;;;;9.85;4.38;;;7.40;99.90;;;;;;5060584;28;20488;-73
2022/11/25 07:46:47;;;;;;;8.07;4.20;;;7.40;99.90;;;;;;5062996;28;20344;-79
2022/11/25 07:49:25;;;;;;;7.45;4.18;;;7.40;99.90;;;;;;5062911;28;20036;-79
2022/11/25 07:51:54;;;;;;;12.35;4.60;;;7.40;99.90;;;;;;5062437;28;20044;-79
2022/11/25 07:54:21;;;;;;;11.15;5.35;;;9.50;99.90;;;;;;5059773;28;20412;-75
2022/11/25 07:56:47;;;;;;;12.50;5.80;;;7.40;99.90;;;;;;5064092;28;20047;-80
2022/11/25 07:59:18;;;;;;;10.85;4.82;;;7.50;99.90;;;;;;5058449;28;20120;-72
2022/11/25 08:01:44;;;;;;;10.82;5.70;;;7.50;99.90;;;;;;5061604;28;20086;-72
2022/11/25 08:04:14;;;;;;;;;;;6.30;99.90;;;;;;5060294;28;20045;-72
2022/11/25 08:06:44;;;;;;;15.23;5.60;;;7.50;99.90;;;;;;5059983;28;20291;-72
2022/11/25 08:09:11;;;;;;;10.02;4.93;;;7.50;99.90;;;;;;5062555;28;20032;-72
2022/11/25 08:11:37;;;;;;;11.27;6.28;;;6.40;99.90;;;;;;5058239;28;20395;-73
2022/11/25 08:14:03;;;;;;;;;;;7.60;99.90;;;;;;5063379;28;20115;-73
2022/11/25 08:16:32;;;;;;;10.60;5.38;;;7.60;99.90;;;;;;5060437;28;19920;-73
2022/11/25 08:18:59;;;;;;;11.65;5.07;;;7.80;99.90;;;;;;5061463;28;20400;-73
2022/11/25 08:21:26;;;;;;;13.38;5.25;;;8.10;99.90;;;;;;5060220;28;20514;-74
2022/11/25 08:23:52;;;;;;;13.60;6.85;;;8.80;99.90;;;;;;5060395;28;20120;-75
2022/11/25 08:26:20;;;;;;;13.38;6.75;;;8.50;99.90;;;;;;5060228;28;20083;-75
2022/11/25 08:28:46;;;;;;;13.65;6.50;;;8.80;99.90;;;;;;5060448;28;20033;-75
2022/11/25 08:31:30;;;;;;;12.77;6.10;;;9.60;99.90;;;;;;5060543;28;20029;-75
2022/11/25 08:33:56;;;;;;;10.35;5.78;;;9.60;99.90;;;;;;5066200;28;20041;-75
2022/11/25 08:36:22;;;;;;;10.13;5.93;;;9.90;99.90;;;;;;5060066;28;20052;-75
2022/11/25 08:38:51;;;;;;;8.70;5.07;;;10.10;99.90;;;;;;5060938;28;20048;-75
2022/11/25 08:41:21;;;;;;;13.38;4.93;;;10.50;99.90;;;;;;5064327;28;20048;-75
2022/11/25 08:43:47;;;;;;;9.05;4.88;;;10.70;99.90;;;;;;5064093;28;20032;-75
2022/11/25 08:46:21;;;;;;;12.43;4.90;;;11.00;99.90;;;;;;5065292;28;20052;-75
2022/11/25 08:48:48;;;;;;;10.30;4.72;;;11.30;99.90;;;;;;5061778;28;20892;-76
2022/11/25 08:51:20;;;;;;;7.85;4.30;;;11.90;99.90;;;;;;5066331;28;20052;-77
2022/11/25 08:53:52;;;;;;;10.35;4.40;;;11.80;99.90;;;;;;5063941;28;20040;-77
2022/11/25 08:56:20;;;;;;;7.95;4.20;;;12.70;99.90;;;;;;5064622;28;20045;-76
2022/11/25 08:58:45;;;;;;;9.25;4.38;;;12.10;99.90;;;;;;5064928;28;20181;-77
2022/11/25 09:01:16;;;;;;;8.25;4.13;;;12.30;99.90;;;;;;5063602;28;20053;-77
2022/11/25 09:03:47;;;;;;;7.13;3.88;;;13.00;99.90;;;;;;5063311;28;20062;-78
2022/11/25 09:06:13;;;;;;;7.97;4.28;;;13.60;99.90;;;;;;5063665;28;20545;-76
2022/11/25 09:08:41;;;;;;;8.00;3.53;;;12.80;99.90;;;;;;5063099;28;20082;-78
2022/11/25 09:11:10;;;;;;;8.50;3.58;;;14.00;99.90;;;;;;5068943;28;20049;-79
2022/11/25 09:13:36;;;;;;;7.20;4.28;;;13.40;99.90;;;;;;5063913;28;20131;-79
2022/11/25 09:16:02;;;;;;;7.47;3.60;;;13.80;99.90;;;;;;5066279;28;20047;-80
2022/11/25 09:18:29;;;;;;;10.77;3.90;;;14.00;99.90;;;;;;5065010;28;20041;-78
2022/11/25 09:20:56;;;;;;;8.10;3.53;;;14.10;99.90;;;;;;5067641;28;20156;-79
2022/11/25 09:23:22;;;;;;;8.05;3.70;;;14.20;99.90;;;;;;5066976;28;20041;-79
2022/11/25 09:25:56;;;;;;;7.60;3.33;;;14.30;99.90;;;;;;5066244;28;20055;-77
2022/11/25 09:28:23;;;;;;;8.75;3.60;;;14.80;99.90;;;;;;5087321;28;20082;-77
2022/11/25 09:30:49;;;;;;;7.45;3.70;;;15.00;99.90;;;;;;5078457;28;20433;-77
2022/11/25 09:33:16;;;;;;;7.22;3.40;;;15.10;99.90;;;;;;5065886;28;20079;-76
2022/11/25 09:35:41;;;;;;;9.20;4.00;;;15.10;99.90;;;;;;5063932;28;20044;-77
2022/11/25 09:38:10;;;;;;;6.50;3.13;;;15.60;99.90;;;;;;5064095;28;20094;-76
2022/11/25 09:41:07;;;;;;;10.63;3.28;;;15.40;99.90;;;;;;5064426;28;20037;-77
2022/11/25 09:46:41;;;;;;;7.30;3.10;;;15.70;99.90;;;;;;5063488;28;20049;-77
2022/11/25 09:49:27;;;;;;;7.90;3.25;;;15.30;99.90;;;;;;5064259;28;20047;-76
2022/11/25 09:51:59;;;;;;;;;;;14.20;99.90;;;;;;5065774;28;20071;-76
2022/11/25 09:54:41;;;;;;;7.07;2.88;;;14.10;99.90;;;;;;5067830;28;19971;-76
2022/11/25 09:57:29;;;;;;;6.85;2.80;;;13.80;99.90;;;;;;5064943;28;20077;-76
2022/11/25 10:00:08;;;;;;;6.03;3.05;;;13.40;99.90;;;;;;5066304;28;20389;-76
2022/11/25 10:02:58;;;;;;;8.88;2.72;;;13.20;99.90;;;;;;5064939;28;20048;-76
2022/11/25 10:05:28;;;;;;;9.55;2.95;;;13.70;99.90;;;;;;5059282;28;20104;-75
2022/11/25 10:07:58;;;;;;;6.63;2.67;;;14.30;99.90;;;;;;5067938;28;20055;-75
2022/11/25 10:10:44;;;;;;;6.95;3.70;;;14.90;99.90;;;;;;5066280;28;20048;-76
2022/11/25 10:13:19;;;;;;;6.65;2.92;;;15.50;99.90;;;;;;5081852;28;20170;-76
2022/11/25 10:15:49;;;;;;;10.15;3.28;;;15.70;99.90;;;;;;5069667;28;20041;-76
2022/11/25 10:18:39;;;;;;;7.15;3.30;;;15.90;99.90;;;;;;5063623;28;20037;-76
2022/11/25 10:21:05;;;;;;;6.75;3.08;;;15.80;99.90;;;;;;5059132;28;20052;-76
2022/11/25 10:23:34;;;;;;;6.82;2.63;;;15.40;99.90;;;;;;5061265;28;20083;-76
2022/11/25 10:26:14;;;;;;;6.13;2.22;;;14.90;99.90;;;;;;5063618;28;20040;-76
2022/11/25 10:28:48;;;;;;;6.47;2.70;;;15.00;99.90;;;;;;5068072;28;20040;-76
2022/11/25 10:31:28;;;;;;;7.97;2.30;;;14.30;99.90;;;;;;5060773;28;20503;-75
2022/11/25 10:33:57;;;;;;;8.70;2.83;;;14.40;99.90;;;;;;5080599;28;20557;-76
2022/11/25 10:36:31;;;;;;;5.35;2.50;;;14.80;99.90;;;;;;5061714;28;20518;-76
2022/11/25 10:39:26;;;;;;;8.02;3.50;;;15.60;99.90;;;;;;5064876;28;20044;-75
2022/11/25 10:41:58;;;;;;;8.93;3.20;;;14.90;99.90;;;;;;5062939;28;20047;-75
2022/11/25 10:44:29;;;;;;;10.23;2.97;;;13.80;99.90;;;;;;5070089;28;20048;-76
2022/11/25 10:47:33;;;;;;;7.32;2.88;;;13.80;99.90;;;;;;5062183;28;20049;-75
2022/11/25 10:50:11;;;;;;;8.48;2.65;;;13.90;99.90;;;;;;5064057;28;20041;-75
2022/11/25 10:53:14;;;;;;;6.97;2.22;;;14.10;99.90;;;;;;5097495;28;20128;-76
2022/11/25 10:56:02;;;;;;;7.25;2.63;;;14.80;99.90;;;;;;5060189;28;20032;-75
2022/11/25 10:58:30;;;;;;;9.05;2.15;;;15.30;99.90;;;;;;5070288;28;20106;-77
2022/11/25 11:01:12;;;;;;;10.30;2.33;;;16.10;99.90;;;;;;5059871;28;20514;-77
2022/11/25 11:03:39;;;;;;;7.15;2.75;;;16.60;99.90;;;;;;5064958;28;20059;-78
2022/11/25 11:06:05;;;;;;;7.07;2.65;;;17.60;99.90;;;;;;5058397;28;20037;-78
2022/11/25 11:08:39;;;;;;;12.15;2.47;;;17.90;99.90;;;;;;5065676;28;20052;-75
2022/11/25 11:11:22;;;;;;;9.93;2.42;;;17.10;99.90;;;;;;5064929;28;20045;-76
2022/11/25 11:13:49;;;;;;;8.57;2.30;;;15.20;99.90;;;;;;5062341;28;20395;-79
2022/11/25 11:16:34;;;;;;;8.45;2.20;;;14.50;99.90;;;;;;5058946;28;21132;-79
2022/11/25 11:19:03;;;;;;;7.88;2.78;;;13.80;99.90;;;;;;5061443;28;20044;-78
2022/11/25 11:21:34;;;;;;;8.95;3.33;;;13.50;99.90;;;;;;5064001;28;20045;-78
2022/11/25 11:24:02;;;;;;;8.50;2.83;;;13.40;99.90;;;;;;5061703;28;20041;-78
2022/11/25 11:26:31;;;;;;;8.80;2.65;;;13.10;99.90;;;;;;5061436;28;20672;-78
2022/11/25 11:29:16;;;;;;;9.73;3.33;;;13.40;99.90;;;;;;5064127;28;20388;-78
2022/11/25 11:31:48;;;;;;;9.93;2.30;;;13.70;99.90;;;;;;5062903;28;20094;-79
2022/11/25 11:34:30;;;;;;;7.72;2.30;;;14.30;99.90;;;;;;5062052;28;20460;-79
2022/11/25 11:37:14;;;;;;;10.93;2.55;;;14.60;99.90;;;;;;5062160;28;20064;-79
2022/11/25 11:39:49;;;;;;;11.23;2.50;;;14.80;99.90;;;;;;5059781;28;21789;-79
2022/11/25 11:42:39;;;;;;;6.68;2.20;;;14.80;99.90;;;;;;5061672;28;20131;-79
2022/11/25 11:45:19;;;;;;;9.40;2.50;;;14.30;99.90;;;;;;5059861;28;20078;-79
2022/11/25 11:48:25;;;;;;;10.45;2.08;;;14.40;99.90;;;;;;5062214;28;20450;-80
2022/11/25 11:51:05;;;;;;;12.05;2.38;;;14.60;99.90;;;;;;5060898;28;20048;-79
2022/11/25 11:53:42;;;;;;;7.75;1.90;;;14.10;99.90;;;;;;5057552;28;20044;-80
2022/11/25 11:56:22;;;;;;;9.85;2.53;;;14.00;99.90;;;;;;5061466;28;20119;-80
2022/11/25 11:59:17;;;;;;;11.38;2.75;;;14.00;99.90;;;;;;5060698;28;20103;-78
2022/11/25 12:02:05;;;;;;;10.68;2.30;;;13.70;99.90;;;;;;5058341;28;20492;-79
2022/11/25 12:04:42;;;;;;;12.23;2.95;;;14.70;99.90;;;;;;5062713;28;20032;-80
2022/11/25 12:07:17;;;;;;;;;;;15.90;99.90;;;;;;5061281;28;20392;-80
2022/11/25 12:09:54;;;;;;;11.00;2.40;;;16.70;99.90;;;;;;5060771;28;19924;-80
2022/11/25 12:12:23;;;;;;;9.55;2.20;;;18.00;99.90;;;;;;5062709;28;20064;-80
2022/11/25 12:14:54;;;;;;;8.70;2.22;;;18.50;99.90;;;;;;5059889;28;20036;-81
2022/11/25 12:17:34;;;;;;;9.15;2.50;;;19.40;99.90;;;;;;5059601;28;20044;-81
2022/11/25 12:20:15;;;;;;;8.80;2.53;;;19.70;99.90;;;;;;5059754;28;20473;-82
2022/11/25 12:23:02;;;;;;;7.72;2.15;;;20.00;99.90;;;;;;5057650;28;20041;-81
2022/11/25 12:25:36;;;;;;;10.50;2.40;;;19.40;99.90;;;;;;5062692;28;20033;-81
2022/11/25 12:28:23;;;;;;;10.52;2.22;;;18.20;99.90;;;;;;5061172;28;20041;-81
2022/11/25 12:31:19;;;;;;;12.65;3.95;;;17.20;99.90;;;;;;5058439;28;20045;-80
2022/11/25 12:33:51;;;;;;;11.30;2.92;;;16.10;99.90;;;;;;5058401;28;20041;-80
2022/11/25 12:36:46;;;;;;;7.57;1.80;;;15.80;99.90;;;;;;5059859;28;20060;-74
2022/11/25 12:39:38;;;;;;;12.25;3.03;;;15.80;99.90;;;;;;5032900;28;20124;-75
2022/11/25 12:42:21;;;;;;;11.27;3.90;;;14.70;99.90;;;;;;5062105;28;20053;-77
2022/11/25 12:45:04;;;;;;;13.38;3.45;;;14.40;99.90;;;;;;5059708;28;20037;-77
2022/11/25 12:47:29;;;;;;;16.15;3.78;;;13.80;99.90;;;;;;5059521;28;20033;-77
2022/11/25 12:49:56;;;;;;;10.25;2.72;;;13.50;99.90;;;;;;5061681;28;20548;-76
2022/11/25 12:52:37;;;;;;;12.00;2.15;;;13.10;99.90;;;;;;5059300;28;20048;-75
2022/11/25 12:55:22;;;;;;;10.38;2.28;;;12.90;99.90;;;;;;5059544;28;20473;-75
2022/11/25 12:58:09;;;;;;;12.45;2.92;;;13.20;99.90;;;;;;5057664;28;20048;-75
2022/11/25 13:00:45;;;;;;;;;;;12.70;99.90;;;;;;5061212;28;20056;-76
2022/11/25 13:03:27;;;;;;;12.05;2.42;;;12.90;99.90;;;;;;5078446;28;20007;-75
2022/11/25 13:06:37;;;;;;;13.02;3.08;;;13.10;99.90;;;;;;5058395;28;20048;-76
2022/11/25 13:09:40;;;;;;;12.13;2.88;;;13.00;99.90;;;;;;5059497;28;20048;-76
2022/11/25 13:12:11;;;;;;;14.07;2.65;;;12.70;99.90;;;;;;5061392;28;20404;-76
2022/11/25 13:15:21;;;;;;;7.25;2.20;;;12.40;99.90;;;;;;5059016;28;20052;-76
2022/11/25 13:17:50;;;;;;;13.27;2.25;;;12.20;99.90;;;;;;5058889;28;20479;-75
2022/11/25 13:20:28;;;;;;;9.20;2.08;;;12.00;99.90;;;;;;5060733;28;20079;-76
2022/11/25 13:23:12;;;;;;;11.60;2.33;;;11.80;99.90;;;;;;5058363;28;20099;-76
2022/11/25 13:25:40;;;;;;;18.88;6.32;;;11.70;99.90;;;;;;5058686;28;20388;-76
2022/11/25 13:28:31;;;;;;;14.77;6.05;;;11.80;99.90;;;;;;5064093;28;20053;-75
2022/11/25 13:31:21;;;;;;;15.63;4.60;;;11.40;99.90;;;;;;5085080;28;20076;-75
2022/11/25 13:33:47;;;;;;;12.60;3.65;;;11.30;99.90;;;;;;5051690;28;20416;-74